createdAt,value
2023-01-27T00:01:20.181Z,1.09
2023-01-27T00:03:49.410Z,1.46
2023-01-27T00:06:18.598Z,1.58
2023-01-27T00:08:47.758Z,1.69
2023-01-27T00:11:34.217Z,1.57
2023-01-27T00:14:04.413Z,1.29
2023-01-27T00:16:33.390Z,0.86
2023-01-27T00:19:02.565Z,0.92
2023-01-27T00:21:49.030Z,0.89
2023-01-27T00:24:35.085Z,0.73
2023-01-27T00:27:04.266Z,0.91
2023-01-27T00:29:34.746Z,1.10
2023-01-27T00:32:21.080Z,0.65
2023-01-27T00:34:49.764Z,0.89
2023-01-27T00:37:18.783Z,1.02
2023-01-27T00:39:47.904Z,0.85
2023-01-27T00:42:17.778Z,0.63
2023-01-27T00:45:01.959Z,0.51
2023-01-27T00:47:31.154Z,0.43
2023-01-27T00:50:00.219Z,0.38
2023-01-27T00:52:29.028Z,0.42
2023-01-27T00:54:58.070Z,0.33
2023-01-27T00:57:27.217Z,0.05
2023-01-27T00:59:59.720Z,0.28
2023-01-27T01:02:28.958Z,0.45
2023-01-27T01:04:58.112Z,0.78
2023-01-27T01:07:26.966Z,0.94
2023-01-27T01:09:56.915Z,0.19
2023-01-27T01:12:26.100Z,0.22
2023-01-27T01:14:55.284Z,0.36
2023-01-27T01:17:25.962Z,0.58
2023-01-27T01:19:54.782Z,0.54
2023-01-27T01:22:23.885Z,0.58
2023-01-27T01:24:52.980Z,0.65
2023-01-27T01:27:22.656Z,0.89
2023-01-27T01:29:52.546Z,0.69
2023-01-27T01:32:21.824Z,0.48
2023-01-27T01:34:52.053Z,0.25
2023-01-27T01:37:21.136Z,0.39
2023-01-27T01:39:50.684Z,0.33
2023-01-27T01:42:19.724Z,0.26
2023-01-27T01:44:48.781Z,0.52
2023-01-27T01:47:18.432Z,0.87
2023-01-27T01:49:48.410Z,0.55
2023-01-27T01:52:22.922Z,0.91
2023-01-27T01:54:53.700Z,0.86
2023-01-27T01:57:25.424Z,0.98
2023-01-27T01:59:55.997Z,0.98
2023-01-27T02:02:26.580Z,0.79
2023-01-27T02:04:57.261Z,0.85
2023-01-27T02:07:33.205Z,0.71
2023-01-27T02:10:02.821Z,1.07
2023-01-27T02:12:32.117Z,1.38
2023-01-27T02:15:01.480Z,1.59
2023-01-27T02:17:30.875Z,1.62
2023-01-27T02:20:02.286Z,1.82
2023-01-27T02:22:37.945Z,1.29
2023-01-27T02:25:16.207Z,1.55
2023-01-27T02:27:46.828Z,1.05
2023-01-27T02:30:15.937Z,1.39
2023-01-27T02:32:45.174Z,1.34
2023-01-27T02:35:18.203Z,0.95
2023-01-27T02:37:47.417Z,1.16
2023-01-27T02:40:17.021Z,1.17
2023-01-27T02:42:47.655Z,1.25
2023-01-27T02:45:19.288Z,0.77
2023-01-27T02:47:48.496Z,1.04
2023-01-27T02:50:18.047Z,1.49
2023-01-27T02:52:46.740Z,1.34
2023-01-27T02:55:15.967Z,1.09
2023-01-27T02:57:46.856Z,1.25
2023-01-27T03:00:34.990Z,1.39
2023-01-27T03:03:04.541Z,1.57
2023-01-27T03:05:33.818Z,1.67
2023-01-27T03:08:03.002Z,1.69
2023-01-27T03:10:31.770Z,1.44
2023-01-27T03:13:02.354Z,1.54
2023-01-27T03:15:48.935Z,1.54
2023-01-27T03:18:18.049Z,1.11
2023-01-27T03:20:48.767Z,1.29
2023-01-27T03:23:19.540Z,1.56
2023-01-27T03:25:52.146Z,1.49
2023-01-27T03:28:22.595Z,1.58
2023-01-27T03:31:03.462Z,1.63
2023-01-27T03:33:47.813Z,1.58
2023-01-27T03:36:45.400Z,1.69
2023-01-27T03:39:31.962Z,1.72
2023-01-27T03:42:18.114Z,1.41
2023-01-27T03:45:06.972Z,1.63
2023-01-27T03:47:35.965Z,1.73
2023-01-27T03:50:11.233Z,1.70
2023-01-27T03:52:39.935Z,1.55
2023-01-27T03:55:09.936Z,1.70
2023-01-27T03:57:39.226Z,1.64
2023-01-27T04:00:11.409Z,1.56
2023-01-27T04:03:00.250Z,1.51
2023-01-27T04:05:46.964Z,1.50
2023-01-27T04:08:15.999Z,1.42
2023-01-27T04:11:04.723Z,0.97
2023-01-27T04:13:33.123Z,1.47
2023-01-27T04:16:03.626Z,1.65
2023-01-27T04:18:32.745Z,1.73
2023-01-27T04:21:01.714Z,1.87
2023-01-27T04:23:30.992Z,1.86
2023-01-27T04:26:00.474Z,1.98
2023-01-27T04:28:43.245Z,2.11
2023-01-27T04:31:14.989Z,2.22
2023-01-27T04:33:44.699Z,2.24
2023-01-27T04:36:14.259Z,2.35
2023-01-27T04:38:43.273Z,2.36
2023-01-27T04:41:12.640Z,2.38
2023-01-27T04:43:41.255Z,2.29
2023-01-27T04:46:10.735Z,2.20
2023-01-27T04:48:41.188Z,2.20
2023-01-27T04:51:10.163Z,1.84
2023-01-27T04:53:39.114Z,1.76
2023-01-27T04:56:14.091Z,1.87
2023-01-27T04:58:42.811Z,1.62
2023-01-27T05:01:11.857Z,1.28
2023-01-27T05:03:42.391Z,1.24
2023-01-27T05:06:11.883Z,1.49
2023-01-27T05:08:41.010Z,1.63
2023-01-27T05:11:10.164Z,1.71
2023-01-27T05:13:38.860Z,1.69
2023-01-27T05:16:12.976Z,1.67
2023-01-27T05:18:44.053Z,1.63
2023-01-27T05:21:15.233Z,1.67
2023-01-27T05:23:44.839Z,1.61
2023-01-27T05:26:15.778Z,1.69
2023-01-27T05:28:45.838Z,1.71
2023-01-27T05:31:18.689Z,1.76
2023-01-27T05:33:50.121Z,1.86
2023-01-27T05:36:20.662Z,1.77
2023-01-27T05:38:49.804Z,1.72
2023-01-27T05:41:20.314Z,1.77
2023-01-27T05:43:52.767Z,1.38
2023-01-27T05:46:23.072Z,1.38
2023-01-27T05:48:54.765Z,1.50
2023-01-27T05:51:25.535Z,1.49
2023-01-27T05:53:55.863Z,1.46
2023-01-27T05:56:25.674Z,1.58
2023-01-27T05:58:55.561Z,1.49
2023-01-27T06:01:26.689Z,1.45
2023-01-27T06:03:57.281Z,1.37
2023-01-27T06:06:28.811Z,1.29
2023-01-27T06:08:57.972Z,1.28
2023-01-27T06:11:27.287Z,1.35
2023-01-27T06:13:55.975Z,1.38
2023-01-27T06:16:25.446Z,1.40
2023-01-27T06:18:55.230Z,1.40
2023-01-27T06:21:25.785Z,1.48
2023-01-27T06:23:56.033Z,1.51
2023-01-27T06:26:25.399Z,1.53
2023-01-27T06:28:54.117Z,1.53
2023-01-27T06:31:23.506Z,1.70
2023-01-27T06:33:52.824Z,1.74
2023-01-27T06:36:23.341Z,1.80
2023-01-27T06:38:53.769Z,1.92
2023-01-27T06:41:22.847Z,1.91
2023-01-27T06:43:51.666Z,1.90
2023-01-27T06:46:20.792Z,1.80
2023-01-27T06:48:49.833Z,1.79
2023-01-27T06:51:18.957Z,1.74
2023-01-27T06:53:48.019Z,1.67
2023-01-27T06:56:18.473Z,1.86
2023-01-27T06:58:47.089Z,1.92
2023-01-27T07:01:16.155Z,1.89
2023-01-27T07:03:45.521Z,1.94
2023-01-27T07:06:16.341Z,2.08
2023-01-27T07:08:47.200Z,2.26
2023-01-27T07:11:17.828Z,2.43
2023-01-27T07:13:46.132Z,2.64
2023-01-27T07:16:15.308Z,2.48
2023-01-27T07:18:44.455Z,2.45
2023-01-27T07:21:14.003Z,2.41
2023-01-27T07:23:43.120Z,2.54
2023-01-27T07:26:24.300Z,2.69
2023-01-27T07:28:57.116Z,3.20
2023-01-27T07:31:26.424Z,3.37
2023-01-27T07:33:55.607Z,3.45
2023-01-27T07:36:24.777Z,3.54
2023-01-27T07:38:53.964Z,3.42
2023-01-27T07:41:25.007Z,3.55
2023-01-27T07:43:55.340Z,3.73
2023-01-27T07:46:26.944Z,3.79
2023-01-27T07:48:56.055Z,3.94
2023-01-27T07:51:25.192Z,4.07
2023-01-27T07:53:54.532Z,4.26
2023-01-27T07:56:23.569Z,4.10
2023-01-27T07:58:56.677Z,4.37
2023-01-27T08:01:26.015Z,4.40
2023-01-27T08:03:55.302Z,4.32
2023-01-27T08:06:24.820Z,3.40
2023-01-27T08:08:54.018Z,3.45
2023-01-27T08:11:23.235Z,3.78
2023-01-27T08:13:52.216Z,3.99
2023-01-27T08:16:22.974Z,4.18
2023-01-27T08:18:54.011Z,4.52
2023-01-27T08:21:23.381Z,4.66
2023-01-27T08:23:52.957Z,4.91
2023-01-27T08:26:22.417Z,5.13
2023-01-27T08:28:51.300Z,5.36
2023-01-27T08:31:20.398Z,5.31
2023-01-27T08:33:54.900Z,5.66
2023-01-27T08:36:26.606Z,5.91
2023-01-27T08:38:55.702Z,6.15
2023-01-27T08:41:26.496Z,6.67
2023-01-27T08:43:55.731Z,7.35
2023-01-27T08:46:25.246Z,7.55
2023-01-27T08:48:55.852Z,8.82
2023-01-27T08:51:24.976Z,9.54
2023-01-27T08:53:57.016Z,9.28
2023-01-27T08:56:26.244Z,8.99
2023-01-27T08:58:56.749Z,8.81
2023-01-27T09:01:25.805Z,8.29
2023-01-27T09:03:57.955Z,7.85
2023-01-27T09:06:27.197Z,7.52
2023-01-27T09:09:11.744Z,7.11
2023-01-27T09:11:42.843Z,6.58
2023-01-27T09:14:12.914Z,6.26
2023-01-27T09:16:41.592Z,6.18
2023-01-27T09:19:12.098Z,6.22
2023-01-27T09:21:41.110Z,6.29
2023-01-27T09:24:10.173Z,6.24
2023-01-27T09:26:39.283Z,6.55
2023-01-27T09:29:08.257Z,6.24
2023-01-27T09:31:37.003Z,6.39
2023-01-27T09:34:06.099Z,6.91
2023-01-27T09:36:41.794Z,7.62
2023-01-27T09:39:11.236Z,7.77
2023-01-27T09:42:01.009Z,8.05
2023-01-27T09:44:50.423Z,9.13
2023-01-27T09:47:30.531Z,10.68
2023-01-27T09:50:17.965Z,13.81
2023-01-27T09:53:02.688Z,13.93
2023-01-27T09:55:37.248Z,15.95
2023-01-27T09:58:11.140Z,17.82
2023-01-27T10:00:47.770Z,19.10
2023-01-27T10:03:27.557Z,17.64
2023-01-27T10:06:26.349Z,16.44
2023-01-27T10:09:08.337Z,15.14
2023-01-27T10:11:42.767Z,13.78
2023-01-27T10:14:20.328Z,12.55
2023-01-27T10:16:58.792Z,11.58
2023-01-27T10:19:47.706Z,10.77
2023-01-27T10:22:20.622Z,9.24
2023-01-27T10:25:02.030Z,8.18
2023-01-27T10:27:36.994Z,7.75
2023-01-27T10:30:13.795Z,7.51
2023-01-27T10:32:46.523Z,7.23
2023-01-27T10:35:18.976Z,6.94
2023-01-27T10:37:56.565Z,6.92
2023-01-27T10:40:33.295Z,6.47
2023-01-27T10:43:05.967Z,6.50
2023-01-27T10:45:40.002Z,6.13
2023-01-27T10:48:27.744Z,5.62
2023-01-27T10:50:59.702Z,5.45
2023-01-27T10:53:32.891Z,5.43
2023-01-27T10:56:08.748Z,5.16
2023-01-27T10:58:45.600Z,5.16
2023-01-27T11:01:21.490Z,4.98
2023-01-27T11:03:55.168Z,4.80
2023-01-27T11:06:25.780Z,4.83
2023-01-27T11:08:57.349Z,4.70
2023-01-27T11:11:46.317Z,4.69
2023-01-27T11:14:19.234Z,4.60
2023-01-27T11:16:51.437Z,4.47
2023-01-27T11:19:35.343Z,4.14
2023-01-27T11:22:08.713Z,3.81
2023-01-27T11:24:45.331Z,4.03
2023-01-27T11:27:24.430Z,3.83
2023-01-27T11:29:57.377Z,3.89
2023-01-27T11:32:36.130Z,3.84
2023-01-27T11:35:09.768Z,3.75
2023-01-27T11:37:40.620Z,3.87
2023-01-27T11:40:17.403Z,4.11
2023-01-27T11:42:48.081Z,4.31
2023-01-27T11:45:18.596Z,4.26
2023-01-27T11:47:49.128Z,4.09
2023-01-27T11:50:20.804Z,4.08
2023-01-27T11:52:51.153Z,4.08
2023-01-27T11:55:22.557Z,4.04
2023-01-27T11:57:55.471Z,3.87
2023-01-27T12:00:27.106Z,3.96
2023-01-27T12:03:02.761Z,4.09
2023-01-27T12:05:35.307Z,4.19
2023-01-27T12:08:05.912Z,4.36
2023-01-27T12:10:35.051Z,4.25
2023-01-27T12:13:11.261Z,4.23
2023-01-27T12:15:49.033Z,4.32
2023-01-27T12:18:18.704Z,4.43
2023-01-27T12:20:49.117Z,4.32
2023-01-27T12:23:20.784Z,4.63
2023-01-27T12:25:52.461Z,4.62
2023-01-27T12:28:32.006Z,4.88
2023-01-27T12:31:06.671Z,4.84
2023-01-27T12:33:37.935Z,4.99
2023-01-27T12:36:14.329Z,5.04
2023-01-27T12:38:47.583Z,5.01
2023-01-27T12:41:22.757Z,5.07
2023-01-27T12:43:55.706Z,5.14
2023-01-27T12:46:26.514Z,5.33
2023-01-27T12:49:02.761Z,5.41
2023-01-27T12:51:41.967Z,5.16
2023-01-27T12:54:18.754Z,5.15
2023-01-27T12:56:47.847Z,4.58
2023-01-27T12:59:19.732Z,4.90
2023-01-27T13:01:59.679Z,5.25
2023-01-27T13:04:31.477Z,5.48
2023-01-27T13:07:07.860Z,5.52
2023-01-27T13:09:39.329Z,5.48
2023-01-27T13:12:20.669Z,5.19
2023-01-27T13:14:55.082Z,4.89
2023-01-27T13:17:34.292Z,4.89
2023-01-27T13:20:06.038Z,5.10
2023-01-27T13:22:41.982Z,4.58
2023-01-27T13:25:18.085Z,4.47
2023-01-27T13:27:48.263Z,4.04
2023-01-27T13:30:24.281Z,4.04
2023-01-27T13:32:55.212Z,4.10
2023-01-27T13:35:27.774Z,4.26
2023-01-27T13:38:02.432Z,4.52
2023-01-27T13:40:35.627Z,4.59
2023-01-27T13:43:09.551Z,4.82
2023-01-27T13:45:42.409Z,5.00
2023-01-27T13:48:16.128Z,5.16
2023-01-27T13:50:47.422Z,4.90
2023-01-27T13:53:18.905Z,4.86
2023-01-27T13:55:52.470Z,4.61
2023-01-27T13:58:30.224Z,4.82
2023-01-27T14:01:07.490Z,4.29
2023-01-27T14:04:04.230Z,4.21
2023-01-27T14:06:42.420Z,4.11
2023-01-27T14:09:38.198Z,4.22
2023-01-27T14:12:20.406Z,3.88
2023-01-27T14:14:59.298Z,3.85
2023-01-27T14:17:45.205Z,4.02
2023-01-27T14:20:33.515Z,3.92
2023-01-27T14:23:14.288Z,3.92
2023-01-27T14:25:48.356Z,3.93
2023-01-27T14:28:25.444Z,3.79
2023-01-27T14:30:58.328Z,3.82
2023-01-27T14:33:39.309Z,3.70
2023-01-27T14:36:15.704Z,3.62
2023-01-27T14:38:49.262Z,3.65
2023-01-27T14:41:25.745Z,3.69
2023-01-27T14:44:01.655Z,3.43
2023-01-27T14:46:41.900Z,3.31
2023-01-27T14:49:13.501Z,3.53
2023-01-27T14:51:49.778Z,3.30
2023-01-27T14:54:29.166Z,3.41
2023-01-27T14:57:13.535Z,3.34
2023-01-27T14:59:48.925Z,3.24
2023-01-27T15:02:29.534Z,2.99
2023-01-27T15:05:00.731Z,3.16
2023-01-27T15:07:36.082Z,3.03
2023-01-27T15:10:16.542Z,2.94
2023-01-27T15:13:08.960Z,2.87
2023-01-27T15:16:11.217Z,2.97
2023-01-27T15:19:02.676Z,2.92
2023-01-27T15:21:58.190Z,2.88
2023-01-27T15:24:51.309Z,2.95
2023-01-27T15:27:21.220Z,2.76
2023-01-27T15:29:50.781Z,2.61
2023-01-27T15:32:31.986Z,2.68
2023-01-27T15:35:31.650Z,2.93
2023-01-27T15:38:10.363Z,2.85
2023-01-27T15:41:00.314Z,2.82
2023-01-27T15:43:31.255Z,2.78
2023-01-27T15:46:20.499Z,2.87
2023-01-27T15:48:49.692Z,2.90
2023-01-27T15:51:20.797Z,2.79
2023-01-27T15:53:54.711Z,2.93
2023-01-27T15:56:41.793Z,3.15
2023-01-27T15:59:16.315Z,2.97
2023-01-27T16:01:45.439Z,2.71
2023-01-27T16:04:17.156Z,2.90
2023-01-27T16:06:48.352Z,2.86
2023-01-27T16:09:24.711Z,2.92
2023-01-27T16:12:02.158Z,3.26
2023-01-27T16:14:45.535Z,3.33
2023-01-27T16:17:26.832Z,2.92
2023-01-27T16:20:04.053Z,2.87
2023-01-27T16:22:35.158Z,2.96
2023-01-27T16:25:20.648Z,3.13
2023-01-27T16:27:55.636Z,3.12
2023-01-27T16:30:27.008Z,3.29
2023-01-27T16:33:06.332Z,3.30
2023-01-27T16:35:41.993Z,2.98
2023-01-27T16:38:21.835Z,3.32
2023-01-27T16:40:54.365Z,3.29
2023-01-27T16:43:25.549Z,3.36
2023-01-27T16:45:55.589Z,3.29
2023-01-27T16:48:29.300Z,3.27
2023-01-27T16:51:09.587Z,3.22
2023-01-27T16:53:38.513Z,3.29
2023-01-27T16:56:20.407Z,3.24
2023-01-27T16:58:50.997Z,2.94
2023-01-27T17:01:26.657Z,2.98
2023-01-27T17:04:04.869Z,3.02
2023-01-27T17:06:40.147Z,3.20
2023-01-27T17:09:21.531Z,3.42
2023-01-27T17:11:53.786Z,3.55
2023-01-27T17:14:31.647Z,3.55
2023-01-27T17:17:02.870Z,3.52
2023-01-27T17:19:34.207Z,3.62
2023-01-27T17:22:05.053Z,2.78
2023-01-27T17:24:35.810Z,2.60
2023-01-27T17:27:09.159Z,2.77
2023-01-27T17:29:39.906Z,2.73
2023-01-27T17:32:21.698Z,2.82
2023-01-27T17:34:50.929Z,2.56
2023-01-27T17:37:21.566Z,2.48
2023-01-27T17:39:54.597Z,2.65
2023-01-27T17:42:27.283Z,2.66
2023-01-27T17:44:56.302Z,2.56
2023-01-27T17:47:25.399Z,2.55
2023-01-27T17:49:54.117Z,2.61
2023-01-27T17:52:25.147Z,2.54
2023-01-27T17:54:54.200Z,2.34
2023-01-27T17:57:26.586Z,2.50
2023-01-27T18:00:01.032Z,2.54
2023-01-27T18:02:32.251Z,2.45
2023-01-27T18:05:03.147Z,2.48
2023-01-27T18:07:32.430Z,2.58
2023-01-27T18:10:01.899Z,2.56
2023-01-27T18:12:34.857Z,2.58
2023-01-27T18:15:34.821Z,2.65
2023-01-27T18:18:05.039Z,2.64
2023-01-27T18:20:36.152Z,2.50
2023-01-27T18:23:08.043Z,2.57
2023-01-27T18:25:36.780Z,2.38
2023-01-27T18:28:07.590Z,2.43
2023-01-27T18:30:36.759Z,2.48
2023-01-27T18:33:07.200Z,2.63
2023-01-27T18:35:36.442Z,2.71
2023-01-27T18:38:21.361Z,2.80
2023-01-27T18:40:50.100Z,2.75
2023-01-27T18:43:20.532Z,2.78
2023-01-27T18:45:50.611Z,2.73
2023-01-27T18:48:19.673Z,2.79
2023-01-27T18:50:50.387Z,2.91
2023-01-27T18:53:20.739Z,2.91
2023-01-27T18:55:50.194Z,2.72
2023-01-27T18:58:21.949Z,2.77
2023-01-27T19:00:53.114Z,2.79
2023-01-27T19:03:24.023Z,2.86
2023-01-27T19:05:53.599Z,2.65
2023-01-27T19:08:23.889Z,2.67
2023-01-27T19:10:53.205Z,2.84
2023-01-27T19:13:24.352Z,2.93
2023-01-27T19:15:55.718Z,2.98
2023-01-27T19:18:27.763Z,2.99
2023-01-27T19:20:56.857Z,2.96
2023-01-27T19:23:25.877Z,2.96
2023-01-27T19:25:55.895Z,3.07
2023-01-27T19:28:30.051Z,2.98
2023-01-27T19:31:00.273Z,2.68
2023-01-27T19:33:32.581Z,2.76
2023-01-27T19:36:04.015Z,2.48
2023-01-27T19:38:33.418Z,2.68
2023-01-27T19:41:02.429Z,2.61
2023-01-27T19:43:32.473Z,2.70
2023-01-27T19:46:01.591Z,2.74
2023-01-27T19:48:30.623Z,2.80
2023-01-27T19:50:59.644Z,3.34
2023-01-27T19:53:28.612Z,3.45
2023-01-27T19:55:59.046Z,3.49
2023-01-27T19:58:29.442Z,2.88
2023-01-27T20:00:59.711Z,3.37
2023-01-27T20:03:30.975Z,3.45
2023-01-27T20:05:59.950Z,3.45
2023-01-27T20:08:28.996Z,2.97
2023-01-27T20:10:58.128Z,2.99
2023-01-27T20:13:26.755Z,3.01
2023-01-27T20:15:55.905Z,3.39
2023-01-27T20:18:26.308Z,3.71
2023-01-27T20:20:55.349Z,3.27
2023-01-27T20:23:24.290Z,2.84
2023-01-27T20:25:54.099Z,2.93
2023-01-27T20:28:23.254Z,3.02
2023-01-27T20:30:52.296Z,3.25
2023-01-27T20:33:21.326Z,3.41
2023-01-27T20:35:51.784Z,2.96
2023-01-27T20:38:20.778Z,2.73
2023-01-27T20:40:49.453Z,2.63
2023-01-27T20:43:33.754Z,2.48
2023-01-27T20:46:05.526Z,2.48
2023-01-27T20:48:34.723Z,2.51
2023-01-27T20:51:06.596Z,2.76
2023-01-27T20:53:37.411Z,2.55
2023-01-27T20:56:06.833Z,2.45
2023-01-27T20:58:35.875Z,2.42
2023-01-27T21:01:08.149Z,2.74
2023-01-27T21:03:38.192Z,2.36
2023-01-27T21:06:09.907Z,2.36
2023-01-27T21:08:39.071Z,2.43
2023-01-27T21:11:11.387Z,2.50
2023-01-27T21:13:40.343Z,2.35
2023-01-27T21:16:09.613Z,2.55
2023-01-27T21:18:38.822Z,2.46
2023-01-27T21:21:09.405Z,2.61
2023-01-27T21:23:39.644Z,2.57
2023-01-27T21:26:09.787Z,2.62
2023-01-27T21:28:38.465Z,2.59
2023-01-27T21:31:08.356Z,2.61
2023-01-27T21:33:38.352Z,2.57
2023-01-27T21:36:10.919Z,2.47
2023-01-27T21:38:40.372Z,2.40
2023-01-27T21:41:12.198Z,2.40
2023-01-27T21:43:58.341Z,2.28
2023-01-27T21:46:27.454Z,2.14
2023-01-27T21:48:56.474Z,2.24
2023-01-27T21:51:26.880Z,2.54
2023-01-27T21:53:56.008Z,2.51
2023-01-27T21:56:25.049Z,2.61
2023-01-27T21:58:53.767Z,2.72
2023-01-27T22:01:22.764Z,2.45
2023-01-27T22:03:51.778Z,2.45
2023-01-27T22:06:20.730Z,2.51
2023-01-27T22:08:52.653Z,2.73
2023-01-27T22:11:21.893Z,2.55
2023-01-27T22:13:50.479Z,2.31
2023-01-27T22:16:20.225Z,2.26
2023-01-27T22:18:49.283Z,2.30
2023-01-27T22:21:18.219Z,2.20
2023-01-27T22:23:47.973Z,2.18
2023-01-27T22:26:20.628Z,2.17
2023-01-27T22:28:49.308Z,2.45
2023-01-27T22:31:18.219Z,2.18
2023-01-27T22:33:47.160Z,2.41
2023-01-27T22:36:16.111Z,2.31
2023-01-27T22:38:45.119Z,2.45
2023-01-27T22:41:14.185Z,2.06
2023-01-27T22:43:44.262Z,2.35
2023-01-27T22:46:13.232Z,2.40
2023-01-27T22:48:42.257Z,2.35
2023-01-27T22:51:11.273Z,2.37
2023-01-27T22:53:40.236Z,2.28
2023-01-27T22:56:09.940Z,2.11
2023-01-27T22:58:39.774Z,2.33
2023-01-27T23:01:10.323Z,2.56
2023-01-27T23:03:39.354Z,2.20
2023-01-27T23:06:09.328Z,2.55
2023-01-27T23:08:38.749Z,2.47
2023-01-27T23:11:08.899Z,2.66
2023-01-27T23:13:38.873Z,2.62
2023-01-27T23:16:09.995Z,2.77
2023-01-27T23:18:39.091Z,2.64
2023-01-27T23:21:09.356Z,2.54
2023-01-27T23:23:38.448Z,2.74
2023-01-27T23:26:08.725Z,2.78
2023-01-27T23:28:38.751Z,2.84
2023-01-27T23:31:10.855Z,2.99
2023-01-27T23:33:41.248Z,2.80
2023-01-27T23:36:11.549Z,2.61
2023-01-27T23:38:40.247Z,2.78
2023-01-27T23:41:12.698Z,2.62
2023-01-27T23:43:42.622Z,2.40
2023-01-27T23:46:13.789Z,2.47
2023-01-27T23:48:42.818Z,2.38
2023-01-27T23:51:14.393Z,2.30
2023-01-27T23:53:43.436Z,2.36
2023-01-27T23:56:13.560Z,2.33
2023-01-27T23:58:42.347Z,2.43
